createdAt,value
2018-03-07T00:00:11.496Z,32.13
2018-03-07T00:01:15.367Z,36.03
2018-03-07T00:02:19.309Z,31.77
2018-03-07T00:03:23.200Z,33.72
2018-03-07T00:04:27.176Z,32.03
2018-03-07T00:05:31.153Z,31.83
2018-03-07T00:06:35.997Z,30.45
2018-03-07T00:07:40.390Z,35.30
2018-03-07T00:08:44.437Z,30.15
2018-03-07T00:09:48.541Z,31.87
2018-03-07T00:10:52.598Z,32.78
2018-03-07T00:11:56.571Z,33.60
2018-03-07T00:13:01.787Z,30.65
2018-03-07T00:14:06.542Z,35.45
2018-03-07T00:15:10.416Z,33.35
2018-03-07T00:16:15.078Z,34.75
2018-03-07T00:17:18.931Z,30.27
2018-03-07T00:18:23.508Z,33.55
2018-03-07T00:19:27.373Z,33.40
2018-03-07T00:20:31.293Z,31.73
2018-03-07T00:21:35.168Z,34.83
2018-03-07T00:22:39.032Z,38.45
2018-03-07T00:23:43.682Z,32.95
2018-03-07T00:24:47.512Z,37.50
2018-03-07T00:25:51.607Z,41.72
2018-03-07T00:26:55.535Z,35.60
2018-03-07T00:27:59.412Z,33.55
2018-03-07T00:29:03.314Z,35.65
2018-03-07T00:30:07.503Z,35.20
2018-03-07T00:31:11.815Z,40.55
2018-03-07T00:32:15.936Z,36.75
2018-03-07T00:33:19.759Z,36.45
2018-03-07T00:34:23.665Z,50.63
2018-03-07T00:35:27.796Z,32.78
2018-03-07T00:36:31.879Z,32.88
2018-03-07T00:37:35.858Z,37.20
2018-03-07T00:38:39.897Z,38.25
2018-03-07T00:39:43.961Z,38.80
2018-03-07T00:40:48.719Z,34.78
2018-03-07T00:41:52.956Z,33.78
2018-03-07T00:42:56.990Z,37.40
2018-03-07T00:44:01.017Z,36.80
2018-03-07T00:45:05.379Z,38.15
2018-03-07T00:46:10.108Z,34.78
2018-03-07T00:47:14.182Z,43.38
2018-03-07T00:48:18.459Z,41.08
2018-03-07T00:49:22.567Z,37.83
2018-03-07T00:50:26.532Z,31.10
2018-03-07T00:51:31.261Z,35.17
2018-03-07T00:52:38.065Z,33.08
2018-03-07T00:53:42.342Z,39.53
2018-03-07T00:54:46.526Z,35.08
2018-03-07T00:55:50.510Z,37.00
2018-03-07T00:56:55.313Z,37.55
2018-03-07T00:58:00.152Z,32.60
2018-03-07T00:59:04.551Z,41.35
2018-03-07T01:00:09.571Z,35.28
2018-03-07T01:01:14.314Z,36.60
2018-03-07T01:02:18.348Z,31.23
2018-03-07T01:03:23.099Z,36.80
2018-03-07T01:04:27.030Z,37.63
2018-03-07T01:05:31.066Z,30.25
2018-03-07T01:06:34.985Z,30.12
2018-03-07T01:07:39.428Z,35.08
2018-03-07T01:08:43.744Z,32.93
2018-03-07T01:09:47.764Z,30.67
2018-03-07T01:10:51.716Z,28.23
2018-03-07T01:11:57.179Z,37.05
2018-03-07T01:13:01.306Z,33.25
2018-03-07T01:14:05.842Z,30.05
2018-03-07T01:15:09.874Z,30.48
2018-03-07T01:16:14.636Z,35.20
2018-03-07T01:17:18.660Z,29.35
2018-03-07T01:18:22.524Z,36.30
2018-03-07T01:19:26.393Z,28.83
2018-03-07T01:20:30.179Z,38.00
2018-03-07T01:21:34.140Z,36.10
2018-03-07T01:22:38.661Z,38.20
2018-03-07T01:23:44.482Z,33.92
2018-03-07T01:24:48.562Z,35.40
2018-03-07T01:25:52.809Z,30.40
2018-03-07T01:26:56.769Z,32.70
2018-03-07T01:28:00.734Z,41.03
2018-03-07T01:29:05.525Z,32.80
2018-03-07T01:30:09.681Z,33.00
2018-03-07T01:31:13.741Z,33.75
2018-03-07T01:32:18.130Z,35.85
2018-03-07T01:33:22.122Z,35.63
2018-03-07T01:34:26.064Z,32.38
2018-03-07T01:35:30.830Z,33.22
2018-03-07T01:36:34.805Z,31.93
2018-03-07T01:37:39.112Z,34.78
2018-03-07T01:38:43.603Z,32.95
2018-03-07T01:39:48.665Z,35.63
2018-03-07T01:40:52.622Z,31.25
2018-03-07T01:41:57.480Z,34.72
2018-03-07T01:43:01.576Z,31.05
2018-03-07T01:44:05.606Z,34.33
2018-03-07T01:45:09.902Z,33.58
2018-03-07T01:46:14.058Z,41.23
2018-03-07T01:47:18.842Z,36.90
2018-03-07T01:48:22.879Z,34.70
2018-03-07T01:49:27.782Z,34.80
2018-03-07T01:50:31.967Z,34.08
2018-03-07T01:51:44.855Z,35.28
2018-03-07T01:52:49.683Z,34.30
2018-03-07T01:53:53.535Z,33.35
2018-03-07T01:54:57.485Z,32.60
2018-03-07T01:56:01.288Z,35.85
2018-03-07T01:57:05.144Z,35.63
2018-03-07T01:58:09.611Z,30.50
2018-03-07T01:59:13.656Z,28.42
2018-03-07T02:00:17.686Z,36.90
2018-03-07T02:01:21.705Z,58.80
2018-03-07T02:02:26.063Z,36.95
2018-03-07T02:03:30.143Z,33.70
2018-03-07T02:04:34.950Z,36.97
2018-03-07T02:06:58.545Z,29.65
2018-03-07T02:08:02.843Z,32.70
2018-03-07T02:09:06.996Z,31.73
2018-03-07T02:10:10.878Z,36.30
2018-03-07T02:11:14.990Z,33.80
2018-03-07T02:12:19.705Z,32.33
2018-03-07T02:13:23.579Z,30.20
2018-03-07T02:14:27.734Z,30.80
2018-03-07T02:15:31.719Z,33.53
2018-03-07T02:16:35.800Z,31.70
2018-03-07T02:17:39.810Z,35.03
2018-03-07T02:18:43.706Z,32.30
2018-03-07T02:19:48.014Z,33.08
2018-03-07T02:20:51.917Z,34.00
2018-03-07T02:21:55.729Z,32.60
2018-03-07T02:22:59.632Z,34.25
2018-03-07T02:24:05.029Z,31.27
2018-03-07T02:25:10.253Z,31.80
2018-03-07T02:26:14.263Z,30.00
2018-03-07T02:27:18.398Z,28.98
2018-03-07T02:28:22.495Z,28.80
2018-03-07T02:29:26.742Z,31.67
2018-03-07T02:30:30.858Z,31.30
2018-03-07T02:31:34.931Z,35.38
2018-03-07T02:32:40.089Z,36.45
2018-03-07T02:33:44.152Z,43.22
2018-03-07T02:34:49.027Z,33.55
2018-03-07T02:35:53.726Z,31.85
2018-03-07T02:36:57.554Z,37.15
2018-03-07T02:38:01.427Z,34.90
2018-03-07T02:39:06.140Z,33.83
2018-03-07T02:40:09.951Z,41.35
2018-03-07T02:41:13.749Z,33.20
2018-03-07T02:42:17.643Z,36.22
2018-03-07T02:43:21.636Z,31.73
2018-03-07T02:44:25.562Z,30.63
2018-03-07T02:45:29.749Z,39.83
2018-03-07T02:46:33.597Z,110.12
2018-03-07T02:47:37.467Z,91.60
2018-03-07T02:48:41.354Z,69.50
2018-03-07T02:49:45.186Z,40.87
2018-03-07T02:50:49.838Z,36.60
2018-03-07T02:51:53.877Z,34.10
2018-03-07T02:52:58.657Z,33.00
2018-03-07T02:54:02.768Z,42.47
2018-03-07T02:55:06.602Z,39.53
2018-03-07T02:56:11.171Z,33.85
2018-03-07T02:57:15.247Z,39.20
2018-03-07T02:58:19.016Z,41.40
2018-03-07T02:59:22.975Z,34.88
2018-03-07T03:00:26.850Z,33.33
2018-03-07T03:01:30.665Z,37.20
2018-03-07T03:02:34.533Z,38.22
2018-03-07T03:03:38.566Z,34.88
2018-03-07T03:04:42.392Z,38.08
2018-03-07T03:05:46.295Z,32.78
2018-03-07T03:06:50.257Z,41.83
2018-03-07T03:07:54.687Z,36.33
2018-03-07T03:08:58.672Z,35.58
2018-03-07T03:10:02.591Z,38.67
2018-03-07T03:11:06.390Z,39.80
2018-03-07T03:12:10.989Z,41.20
2018-03-07T03:13:14.828Z,39.70
2018-03-07T03:14:18.683Z,41.60
2018-03-07T03:15:22.664Z,40.40
2018-03-07T03:16:26.721Z,37.33
2018-03-07T03:17:30.669Z,41.90
2018-03-07T03:18:34.764Z,38.88
2018-03-07T03:19:38.665Z,40.63
2018-03-07T03:20:42.755Z,43.13
2018-03-07T03:21:46.626Z,36.88
2018-03-07T03:22:50.484Z,43.50
2018-03-07T03:23:55.201Z,40.05
2018-03-07T03:24:59.992Z,42.65
2018-03-07T03:26:04.219Z,42.00
2018-03-07T03:27:08.082Z,93.32
2018-03-07T03:28:12.162Z,57.75
2018-03-07T03:29:16.507Z,44.50
2018-03-07T03:30:20.670Z,45.92
2018-03-07T03:31:24.766Z,45.45
2018-03-07T03:32:28.790Z,45.28
2018-03-07T03:33:32.981Z,53.22
2018-03-07T03:34:37.363Z,43.50
2018-03-07T03:35:42.450Z,40.22
2018-03-07T03:36:46.586Z,46.80
2018-03-07T03:37:50.397Z,42.05
2018-03-07T03:38:55.341Z,47.20
2018-03-07T03:39:59.228Z,39.83
2018-03-07T03:41:03.077Z,35.72
2018-03-07T03:42:06.908Z,34.53
2018-03-07T03:43:11.266Z,32.85
2018-03-07T03:44:16.089Z,33.35
2018-03-07T03:45:20.581Z,37.58
2018-03-07T03:46:24.555Z,37.30
2018-03-07T03:47:29.628Z,34.92
2018-03-07T03:48:33.708Z,29.58
2018-03-07T03:49:37.755Z,29.80
2018-03-07T03:50:42.780Z,32.75
2018-03-07T03:51:46.749Z,31.73
2018-03-07T03:52:50.929Z,31.85
2018-03-07T03:53:54.978Z,29.27
2018-03-07T03:54:59.018Z,32.30
2018-03-07T03:56:03.053Z,36.33
2018-03-07T03:57:06.949Z,31.70
2018-03-07T03:58:10.898Z,31.83
2018-03-07T03:59:15.554Z,30.35
2018-03-07T04:00:19.358Z,33.58
2018-03-07T04:01:23.451Z,29.50
2018-03-07T04:02:27.350Z,29.73
2018-03-07T04:03:31.248Z,29.80
2018-03-07T04:04:35.179Z,30.58
2018-03-07T04:05:39.108Z,24.73
2018-03-07T04:06:43.047Z,26.33
2018-03-07T04:07:47.098Z,25.10
2018-03-07T04:08:52.109Z,37.13
2018-03-07T04:09:56.502Z,26.55
2018-03-07T04:11:00.488Z,29.40
2018-03-07T04:12:04.892Z,26.70
2018-03-07T04:13:09.817Z,29.85
2018-03-07T04:14:14.060Z,31.83
2018-03-07T04:15:18.930Z,26.33
2018-03-07T04:16:22.758Z,33.53
2018-03-07T04:17:26.596Z,25.25
2018-03-07T04:18:30.384Z,27.60
2018-03-07T04:19:34.323Z,27.55
2018-03-07T04:20:38.127Z,29.15
2018-03-07T04:21:41.969Z,32.40
2018-03-07T04:22:46.608Z,28.65
2018-03-07T04:23:50.452Z,28.15
2018-03-07T04:24:54.554Z,29.80
2018-03-07T04:25:59.747Z,28.95
2018-03-07T04:27:03.789Z,31.50
2018-03-07T04:28:07.817Z,30.52
2018-03-07T04:29:12.941Z,26.45
2018-03-07T04:30:17.453Z,29.37
2018-03-07T04:31:21.488Z,31.80
2018-03-07T04:32:25.526Z,30.60
2018-03-07T04:33:31.673Z,26.10
2018-03-07T04:34:35.616Z,33.25
2018-03-07T04:35:39.511Z,33.97
2018-03-07T04:36:43.440Z,30.48
2018-03-07T04:37:47.337Z,34.53
2018-03-07T04:38:51.217Z,32.08
2018-03-07T04:39:55.327Z,34.80
2018-03-07T04:40:59.696Z,37.40
2018-03-07T04:42:05.148Z,34.40
2018-03-07T04:43:09.321Z,37.33
2018-03-07T04:44:14.317Z,34.90
2018-03-07T04:45:18.552Z,34.27
2018-03-07T04:46:23.211Z,37.85
2018-03-07T04:47:27.435Z,34.53
2018-03-07T04:48:32.456Z,31.98
2018-03-07T04:49:37.068Z,37.08
2018-03-07T04:50:40.943Z,33.75
2018-03-07T04:51:45.044Z,33.03
2018-03-07T04:52:49.034Z,37.60
2018-03-07T04:53:53.100Z,35.03
2018-03-07T04:54:57.133Z,35.47
2018-03-07T04:56:01.162Z,29.73
2018-03-07T04:57:05.021Z,28.75
2018-03-07T04:58:08.822Z,29.10
2018-03-07T04:59:12.735Z,27.58
2018-03-07T05:00:16.544Z,28.55
2018-03-07T05:01:20.375Z,31.35
2018-03-07T05:02:24.216Z,31.67
2018-03-07T05:03:28.417Z,33.50
2018-03-07T05:04:32.552Z,35.45
2018-03-07T05:05:36.482Z,32.40
2018-03-07T05:06:40.933Z,39.70
2018-03-07T05:07:44.788Z,31.12
2018-03-07T05:08:48.746Z,35.33
2018-03-07T05:09:53.168Z,34.10
2018-03-07T05:10:57.229Z,34.20
2018-03-07T05:12:01.362Z,31.58
2018-03-07T05:13:05.464Z,34.67
2018-03-07T05:14:09.269Z,32.70
2018-03-07T05:15:13.874Z,32.72
2018-03-07T05:16:17.903Z,33.65
2018-03-07T05:17:21.784Z,36.22
2018-03-07T05:18:25.634Z,39.85
2018-03-07T05:19:29.487Z,33.63
2018-03-07T05:20:33.827Z,39.40
2018-03-07T05:21:38.275Z,34.55
2018-03-07T05:22:42.357Z,30.50
2018-03-07T05:23:46.329Z,30.35
2018-03-07T05:24:51.110Z,35.80
2018-03-07T05:25:55.371Z,34.97
2018-03-07T05:26:59.918Z,35.55
2018-03-07T05:28:04.604Z,33.45
2018-03-07T05:29:08.875Z,29.35
2018-03-07T05:30:12.755Z,32.73
2018-03-07T05:31:16.595Z,29.87
2018-03-07T05:32:21.254Z,32.03
2018-03-07T05:33:25.155Z,29.52
2018-03-07T05:34:29.031Z,32.55
2018-03-07T05:35:32.936Z,31.52
2018-03-07T05:36:36.794Z,123.90
2018-03-07T05:37:41.440Z,66.03
2018-03-07T05:38:45.561Z,38.95
2018-03-07T05:39:49.753Z,34.97
2018-03-07T05:40:53.592Z,29.05
2018-03-07T05:41:57.382Z,32.10
2018-03-07T05:43:01.386Z,34.35
2018-03-07T05:44:05.283Z,31.52
2018-03-07T05:45:09.128Z,34.90
2018-03-07T05:46:13.357Z,31.45
2018-03-07T05:47:17.213Z,27.87
2018-03-07T05:48:21.115Z,28.98
2018-03-07T05:49:24.973Z,31.80
2018-03-07T05:50:28.849Z,30.73
2018-03-07T05:51:33.022Z,34.30
2018-03-07T05:52:36.829Z,27.27
2018-03-07T05:53:40.711Z,32.88
2018-03-07T05:54:44.537Z,32.35
2018-03-07T05:55:48.470Z,32.97
2018-03-07T05:56:52.420Z,30.70
2018-03-07T05:57:56.263Z,29.80
2018-03-07T05:59:00.862Z,33.15
2018-03-07T06:00:05.195Z,32.00
2018-03-07T06:01:09.973Z,30.25
2018-03-07T06:02:14.071Z,32.30
2018-03-07T06:03:18.149Z,34.03
2018-03-07T06:04:22.188Z,34.80
2018-03-07T06:05:27.812Z,37.92
2018-03-07T06:06:32.093Z,36.42
2018-03-07T06:07:36.626Z,35.13
2018-03-07T06:08:40.763Z,36.97
2018-03-07T06:09:46.247Z,43.92
2018-03-07T06:10:50.163Z,36.70
2018-03-07T06:11:54.072Z,35.47
2018-03-07T06:12:57.969Z,34.73
2018-03-07T06:14:02.256Z,36.13
2018-03-07T06:15:06.172Z,32.80
2018-03-07T06:16:10.203Z,39.55
2018-03-07T06:17:14.297Z,36.67
2018-03-07T06:18:18.326Z,40.00
2018-03-07T06:19:22.434Z,38.78
2018-03-07T06:20:26.890Z,36.95
2018-03-07T06:21:32.089Z,37.47
2018-03-07T06:22:36.147Z,47.00
2018-03-07T06:23:40.801Z,61.90
2018-03-07T06:24:44.938Z,45.28
2018-03-07T06:25:49.394Z,41.70
2018-03-07T06:26:54.354Z,40.33
2018-03-07T06:27:59.528Z,38.85
2018-03-07T06:29:04.035Z,39.13
2018-03-07T06:30:09.049Z,34.85
2018-03-07T06:31:14.114Z,37.72
2018-03-07T06:32:18.917Z,42.20
2018-03-07T06:33:23.302Z,39.47
2018-03-07T06:34:27.382Z,44.77
2018-03-07T06:35:31.697Z,37.40
2018-03-07T06:36:35.682Z,42.45
2018-03-07T06:37:39.774Z,39.50
2018-03-07T06:38:44.189Z,44.25
2018-03-07T06:39:48.198Z,42.83
2018-03-07T06:40:52.297Z,45.10
2018-03-07T06:41:56.279Z,43.78
2018-03-07T06:43:00.312Z,43.28
2018-03-07T06:44:04.694Z,41.10
2018-03-07T06:45:08.729Z,45.38
2018-03-07T06:46:12.599Z,45.42
2018-03-07T06:47:16.494Z,43.20
2018-03-07T06:48:20.390Z,43.47
2018-03-07T06:49:26.779Z,46.05
2018-03-07T06:50:30.860Z,41.15
2018-03-07T06:51:34.881Z,45.55
2018-03-07T06:52:38.946Z,42.95
2018-03-07T06:53:42.996Z,41.37
2018-03-07T06:54:47.894Z,53.10
2018-03-07T06:55:51.794Z,67.50
2018-03-07T06:56:56.652Z,46.63
2018-03-07T06:58:00.468Z,51.03
2018-03-07T06:59:04.352Z,51.75
2018-03-07T07:00:08.252Z,42.38
2018-03-07T07:01:12.098Z,45.65
2018-03-07T07:02:16.217Z,41.00
2018-03-07T07:03:20.904Z,39.28
2018-03-07T07:04:24.714Z,42.45
2018-03-07T07:05:28.573Z,45.35
2018-03-07T07:06:32.970Z,41.40
2018-03-07T07:07:36.876Z,38.95
2018-03-07T07:08:41.028Z,41.63
2018-03-07T07:09:45.629Z,44.28
2018-03-07T07:10:49.535Z,39.95
2018-03-07T07:11:53.358Z,40.10
2018-03-07T07:12:57.182Z,37.20
2018-03-07T07:14:01.073Z,40.87
2018-03-07T07:15:05.223Z,39.10
2018-03-07T07:16:09.118Z,36.33
2018-03-07T07:17:13.757Z,38.22
2018-03-07T07:18:18.601Z,40.75
2018-03-07T07:19:22.650Z,40.22
2018-03-07T07:20:26.945Z,44.53
2018-03-07T07:21:31.016Z,42.23
2018-03-07T07:22:35.014Z,43.33
2018-03-07T07:23:38.992Z,40.28
2018-03-07T07:24:43.329Z,39.97
2018-03-07T07:25:47.373Z,39.03
2018-03-07T07:26:51.674Z,42.60
2018-03-07T07:27:55.755Z,40.40
2018-03-07T07:28:59.741Z,37.53
2018-03-07T07:30:03.889Z,37.05
2018-03-07T07:31:08.643Z,40.20
2018-03-07T07:32:12.892Z,42.92
2018-03-07T07:33:17.262Z,36.80
2018-03-07T07:34:22.077Z,38.60
2018-03-07T07:35:25.964Z,39.33
2018-03-07T07:36:29.852Z,42.28
2018-03-07T07:37:33.710Z,37.20
2018-03-07T07:38:37.582Z,35.70
2018-03-07T07:39:41.467Z,35.47
2018-03-07T07:40:45.431Z,33.47
2018-03-07T07:41:50.144Z,36.70
2018-03-07T07:42:54.755Z,34.47
2018-03-07T07:43:59.653Z,30.92
2018-03-07T07:45:03.540Z,30.62
2018-03-07T07:46:07.452Z,31.73
2018-03-07T07:47:11.459Z,33.30
2018-03-07T07:48:15.323Z,31.33
2018-03-07T07:49:19.230Z,31.98
2018-03-07T07:50:23.162Z,36.30
2018-03-07T07:51:28.051Z,35.40
2018-03-07T07:52:32.185Z,29.77
2018-03-07T07:53:36.978Z,33.75
2018-03-07T07:54:40.991Z,29.90
2018-03-07T07:55:45.036Z,31.80
2018-03-07T07:56:49.055Z,33.53
2018-03-07T07:57:53.141Z,33.90
2018-03-07T07:58:57.109Z,32.45
2018-03-07T08:00:01.773Z,31.23
2018-03-07T08:01:05.895Z,34.55
2018-03-07T08:02:09.732Z,31.42
2018-03-07T08:03:13.737Z,27.35
2018-03-07T08:04:17.758Z,34.63
2018-03-07T08:05:21.736Z,32.43
2018-03-07T08:06:25.802Z,28.92
2018-03-07T08:07:29.888Z,34.80
2018-03-07T08:08:34.129Z,34.15
2018-03-07T08:09:38.880Z,30.85
2018-03-07T08:10:42.929Z,30.20
2018-03-07T08:11:46.908Z,27.50
2018-03-07T08:12:51.157Z,29.85
2018-03-07T08:13:55.944Z,29.65
2018-03-07T08:14:59.929Z,32.50
2018-03-07T08:16:04.025Z,27.93
2018-03-07T08:17:08.095Z,27.47
2018-03-07T08:18:12.437Z,27.65
2018-03-07T08:19:16.453Z,28.87
2018-03-07T08:20:20.446Z,28.17
2018-03-07T08:21:24.582Z,29.52
2018-03-07T08:22:29.401Z,26.12
2018-03-07T08:23:34.057Z,30.20
2018-03-07T08:24:37.873Z,28.83
2018-03-07T08:25:41.730Z,30.27
2018-03-07T08:26:45.587Z,28.62
2018-03-07T08:27:49.427Z,28.45
2018-03-07T08:28:53.267Z,26.60
2018-03-07T08:29:57.167Z,34.90
2018-03-07T08:31:01.017Z,31.23
2018-03-07T08:32:04.885Z,28.70
2018-03-07T08:33:09.661Z,24.93
2018-03-07T08:34:13.526Z,28.00
2018-03-07T08:35:17.666Z,27.65
2018-03-07T08:36:24.440Z,27.95
2018-03-07T08:37:31.775Z,28.50
2018-03-07T08:38:36.447Z,29.52
2018-03-07T08:39:40.338Z,23.15
2018-03-07T08:40:44.226Z,32.03
2018-03-07T08:41:48.059Z,30.48
2018-03-07T08:42:51.949Z,26.13
2018-03-07T08:43:56.754Z,28.27
2018-03-07T08:45:01.839Z,28.15
2018-03-07T08:46:05.705Z,32.50
2018-03-07T08:47:09.611Z,32.42
2018-03-07T08:48:13.441Z,30.60
2018-03-07T08:49:17.328Z,76.80
2018-03-07T08:50:21.166Z,47.80
2018-03-07T08:51:25.860Z,29.08
2018-03-07T08:52:29.973Z,28.40
2018-03-07T08:53:33.902Z,27.27
2018-03-07T08:54:37.765Z,31.73
2018-03-07T08:55:41.643Z,28.50
2018-03-07T08:56:45.537Z,29.50
2018-03-07T08:57:49.346Z,32.10
2018-03-07T08:58:53.230Z,31.37
2018-03-07T08:59:57.111Z,32.80
2018-03-07T09:01:01.054Z,30.83
2018-03-07T09:02:05.665Z,30.00
2018-03-07T09:03:09.486Z,30.88
2018-03-07T09:04:14.076Z,31.27
2018-03-07T09:05:18.205Z,27.15
2018-03-07T09:06:22.956Z,30.65
2018-03-07T09:07:26.950Z,29.10
2018-03-07T09:08:30.957Z,26.60
2018-03-07T09:09:35.052Z,26.17
2018-03-07T09:10:39.356Z,26.70
2018-03-07T09:11:43.409Z,25.20
2018-03-07T09:12:48.254Z,32.97
2018-03-07T09:13:52.326Z,35.25
2018-03-07T09:14:56.326Z,32.47
2018-03-07T09:16:00.459Z,28.48
2018-03-07T09:17:04.785Z,27.62
2018-03-07T09:18:08.849Z,32.78
2018-03-07T09:19:13.602Z,31.10
2018-03-07T09:20:17.699Z,34.08
2018-03-07T09:21:21.758Z,32.00
2018-03-07T09:22:25.793Z,27.17
2018-03-07T09:23:29.812Z,29.27
2018-03-07T09:24:33.889Z,39.13
2018-03-07T09:25:37.896Z,29.60
2018-03-07T09:26:42.402Z,30.00
2018-03-07T09:27:46.441Z,32.63
2018-03-07T09:28:50.539Z,32.40
2018-03-07T09:29:54.642Z,26.77
2018-03-07T09:30:58.774Z,31.53
2018-03-07T09:32:02.817Z,31.07
2018-03-07T09:33:06.906Z,30.48
2018-03-07T09:34:10.991Z,26.52
2018-03-07T09:35:15.835Z,28.48
2018-03-07T09:36:19.979Z,28.05
2018-03-07T09:37:24.102Z,29.15
2018-03-07T09:38:28.205Z,32.42
2018-03-07T09:39:32.184Z,29.30
2018-03-07T09:40:36.114Z,28.10
2018-03-07T09:41:39.979Z,30.50
2018-03-07T09:42:43.916Z,26.42
2018-03-07T09:43:48.534Z,28.12
2018-03-07T09:44:53.453Z,33.10
2018-03-07T09:45:58.085Z,29.07
2018-03-07T09:47:01.955Z,36.88
2018-03-07T09:48:06.802Z,30.70
2018-03-07T09:49:10.887Z,37.50
2018-03-07T09:50:15.697Z,32.30
2018-03-07T09:51:21.015Z,32.22
2018-03-07T09:52:24.989Z,29.92
2018-03-07T09:53:29.048Z,30.27
2018-03-07T09:54:33.849Z,31.00
2018-03-07T09:55:38.451Z,31.12
2018-03-07T09:56:43.109Z,34.92
2018-03-07T09:57:47.242Z,33.65
2018-03-07T09:58:51.105Z,37.35
2018-03-07T09:59:54.909Z,39.00
2018-03-07T10:00:59.216Z,34.00
2018-03-07T10:02:03.221Z,37.28
2018-03-07T10:03:07.457Z,45.38
2018-03-07T10:04:11.312Z,55.95
2018-03-07T10:05:15.119Z,41.22
2018-03-07T10:06:18.976Z,33.88
2018-03-07T10:07:23.611Z,32.57
2018-03-07T10:08:27.503Z,36.47
2018-03-07T10:09:31.402Z,35.50
2018-03-07T10:10:35.322Z,33.10
2018-03-07T10:11:39.391Z,32.55
2018-03-07T10:12:44.310Z,36.95
2018-03-07T10:13:49.154Z,32.97
2018-03-07T10:14:53.893Z,32.25
2018-03-07T10:15:58.091Z,32.53
2018-03-07T10:17:01.905Z,29.83
2018-03-07T10:18:05.757Z,33.42
2018-03-07T10:19:09.577Z,30.92
2018-03-07T10:20:13.396Z,33.07
2018-03-07T10:21:17.661Z,36.00
2018-03-07T10:22:21.549Z,32.75
2018-03-07T10:23:25.954Z,34.38
2018-03-07T10:24:29.801Z,35.47
2018-03-07T10:25:33.917Z,40.75
2018-03-07T10:26:37.815Z,33.42
2018-03-07T10:27:42.003Z,35.60
2018-03-07T10:28:45.855Z,36.17
2018-03-07T10:29:49.763Z,31.70
2018-03-07T10:30:53.658Z,37.80
2018-03-07T10:31:57.665Z,36.92
2018-03-07T10:33:02.426Z,38.00
2018-03-07T10:34:06.256Z,34.15
2018-03-07T10:35:10.358Z,35.97
2018-03-07T10:36:15.105Z,35.50
2018-03-07T10:37:19.193Z,37.28
2018-03-07T10:38:23.481Z,41.20
2018-03-07T10:39:27.526Z,41.63
2018-03-07T10:40:31.614Z,40.33
2018-03-07T10:41:35.646Z,36.83
2018-03-07T10:42:39.511Z,40.45
2018-03-07T10:43:43.526Z,43.85
2018-03-07T10:44:47.685Z,45.42
2018-03-07T10:45:51.578Z,42.62
2018-03-07T10:46:55.426Z,44.43
2018-03-07T10:47:59.334Z,40.60
2018-03-07T10:49:03.316Z,39.25
2018-03-07T10:50:07.141Z,34.53
2018-03-07T10:51:11.027Z,38.00
2018-03-07T10:52:16.018Z,37.15
2018-03-07T10:53:20.009Z,38.55
2018-03-07T10:54:24.154Z,34.40
2018-03-07T10:55:28.171Z,32.25
2018-03-07T10:56:32.458Z,37.25
2018-03-07T10:57:36.606Z,37.88
2018-03-07T10:58:40.722Z,34.13
2018-03-07T10:59:44.571Z,35.22
2018-03-07T11:00:48.444Z,42.88
2018-03-07T11:01:52.269Z,37.93
2018-03-07T11:02:56.149Z,33.45
2018-03-07T11:04:00.052Z,34.22
2018-03-07T11:05:03.967Z,30.73
2018-03-07T11:06:08.541Z,37.90
2018-03-07T11:07:12.497Z,38.58
2018-03-07T11:08:16.556Z,33.65
2018-03-07T11:09:20.489Z,34.53
2018-03-07T11:10:24.605Z,41.73
2018-03-07T11:11:28.656Z,31.95
2018-03-07T11:12:32.702Z,33.13
2018-03-07T11:13:37.391Z,32.03
2018-03-07T11:14:42.627Z,30.55
2018-03-07T11:15:47.323Z,34.65
2018-03-07T11:16:51.265Z,32.40
2018-03-07T11:17:55.090Z,31.10
2018-03-07T11:18:59.077Z,26.65
2018-03-07T11:20:02.890Z,32.60
2018-03-07T11:21:07.240Z,28.33
2018-03-07T11:22:12.097Z,34.60
2018-03-07T11:23:16.170Z,34.40
2018-03-07T11:24:21.148Z,31.70
2018-03-07T11:25:25.245Z,28.60
2018-03-07T11:26:29.244Z,31.92
2018-03-07T11:27:33.308Z,25.37
2018-03-07T11:28:37.440Z,31.10
2018-03-07T11:29:41.555Z,29.52
2018-03-07T11:30:45.609Z,33.03
2018-03-07T11:31:49.643Z,32.05
2018-03-07T11:32:53.661Z,26.97
2018-03-07T11:33:57.698Z,36.75
2018-03-07T11:35:02.530Z,31.60
2018-03-07T11:36:06.645Z,34.97
2018-03-07T11:37:10.629Z,32.47
2018-03-07T11:38:15.584Z,26.65
2018-03-07T11:39:19.669Z,31.83
2018-03-07T11:40:25.733Z,28.87
2018-03-07T11:41:29.806Z,28.40
2018-03-07T11:42:33.920Z,40.35
2018-03-07T11:43:37.975Z,28.42
2018-03-07T11:44:42.070Z,32.72
2018-03-07T11:45:46.130Z,31.17
2018-03-07T11:46:50.111Z,34.60
2018-03-07T11:47:54.579Z,37.67
2018-03-07T11:48:58.664Z,32.03
2018-03-07T11:50:02.797Z,32.35
2018-03-07T11:51:06.695Z,41.92
2018-03-07T11:52:11.058Z,27.20
2018-03-07T11:53:14.962Z,32.85
2018-03-07T11:54:18.880Z,30.92
2018-03-07T11:55:22.864Z,28.38
2018-03-07T11:56:26.957Z,29.70
2018-03-07T11:57:31.049Z,33.55
2018-03-07T11:58:35.206Z,32.83
2018-03-07T11:59:39.246Z,34.58
2018-03-07T12:00:43.278Z,30.67
2018-03-07T12:01:47.306Z,29.60
2018-03-07T12:02:52.188Z,26.37
2018-03-07T12:03:56.253Z,25.75
2018-03-07T12:05:01.064Z,28.45
2018-03-07T12:06:06.019Z,26.58
2018-03-07T12:07:10.085Z,33.42
2018-03-07T12:08:14.911Z,29.85
2018-03-07T12:09:19.684Z,25.98
2018-03-07T12:10:24.150Z,26.77
2018-03-07T12:11:28.218Z,27.90
2018-03-07T12:12:32.306Z,26.45
2018-03-07T12:13:36.282Z,28.83
2018-03-07T12:14:40.368Z,25.80
2018-03-07T12:15:44.467Z,25.95
2018-03-07T12:16:48.717Z,25.00
2018-03-07T12:17:52.744Z,29.55
2018-03-07T12:18:57.594Z,32.67
2018-03-07T12:20:01.628Z,26.62
2018-03-07T12:21:05.677Z,25.08
2018-03-07T12:22:09.583Z,27.58
2018-03-07T12:23:13.513Z,24.83
2018-03-07T12:24:17.310Z,22.85
2018-03-07T12:25:21.372Z,23.58
2018-03-07T12:26:25.269Z,24.73
2018-03-07T12:27:29.191Z,27.60
2018-03-07T12:28:33.488Z,18.02
2018-03-07T12:29:37.380Z,24.87
2018-03-07T12:30:42.252Z,16.08
2018-03-07T12:31:46.116Z,9.95
2018-03-07T12:32:50.010Z,8.95
2018-03-07T12:33:54.025Z,10.60
2018-03-07T12:34:58.178Z,8.50
2018-03-07T12:36:02.777Z,11.60
2018-03-07T12:37:08.511Z,10.35
2018-03-07T12:38:13.717Z,7.70
2018-03-07T12:39:18.967Z,11.68
2018-03-07T12:40:25.656Z,5.80
2018-03-07T12:41:32.326Z,5.57
2018-03-07T12:42:38.536Z,5.62
2018-03-07T12:43:44.159Z,4.90
2018-03-07T12:44:51.315Z,5.53
2018-03-07T12:45:55.616Z,6.85
2018-03-07T12:47:00.162Z,4.60
2018-03-07T12:48:04.187Z,3.90
2018-03-07T12:49:08.942Z,3.28
2018-03-07T12:50:13.041Z,3.20
2018-03-07T12:51:17.482Z,3.55
2018-03-07T12:52:21.756Z,3.77
2018-03-07T12:53:25.852Z,3.45
2018-03-07T12:54:29.834Z,3.70
2018-03-07T12:55:34.581Z,3.97
2018-03-07T12:56:38.560Z,3.28
2018-03-07T12:57:42.542Z,3.87
2018-03-07T12:58:47.655Z,4.93
2018-03-07T12:59:51.657Z,3.70
2018-03-07T13:02:53.525Z,3.62
2018-03-07T13:04:04.504Z,3.10
2018-03-07T13:05:18.072Z,3.60
2018-03-07T13:06:24.947Z,3.85
2018-03-07T13:07:51.865Z,3.40
2018-03-07T13:08:55.847Z,3.72
2018-03-07T13:10:00.226Z,3.90
2018-03-07T13:11:05.003Z,4.20
2018-03-07T13:12:11.029Z,30.83
2018-03-07T13:13:15.273Z,23.85
2018-03-07T13:14:19.321Z,27.77
2018-03-07T13:15:23.369Z,51.58
2018-03-07T13:16:27.573Z,10.68
2018-03-07T13:17:31.413Z,7.70
2018-03-07T13:18:36.038Z,5.72
2018-03-07T13:19:40.045Z,5.97
2018-03-07T13:20:43.914Z,4.10
2018-03-07T13:21:48.645Z,5.65
2018-03-07T13:22:52.497Z,3.10
2018-03-07T13:23:56.353Z,5.87
2018-03-07T13:25:00.168Z,5.30
2018-03-07T13:26:03.991Z,3.80
2018-03-07T13:27:08.253Z,4.20
2018-03-07T13:28:12.222Z,4.10
2018-03-07T13:29:16.959Z,3.70
2018-03-07T13:30:21.020Z,3.58
2018-03-07T13:31:25.842Z,3.50
2018-03-07T13:32:30.624Z,3.45
2018-03-07T13:33:34.915Z,3.80
2018-03-07T13:34:38.953Z,4.43
2018-03-07T13:35:42.785Z,4.28
2018-03-07T13:36:46.585Z,3.92
2018-03-07T13:37:50.442Z,3.00
2018-03-07T13:38:54.358Z,3.53
2018-03-07T13:39:58.967Z,3.72
2018-03-07T13:41:03.025Z,3.62
2018-03-07T13:42:06.927Z,3.60
2018-03-07T13:43:10.765Z,3.93
2018-03-07T13:44:14.664Z,4.00
2018-03-07T13:45:19.611Z,51.33
2018-03-07T13:46:23.560Z,17.67
2018-03-07T13:47:28.174Z,4.05
2018-03-07T13:48:32.040Z,4.15
2018-03-07T13:49:35.878Z,4.20
2018-03-07T13:50:39.709Z,8.93
2018-03-07T13:51:43.526Z,6.20
2018-03-07T13:52:47.399Z,4.40